createdAt,value
2018-11-10T00:02:20.657Z,99092.31
2018-11-10T00:04:52.718Z,99089.92
2018-11-10T00:07:24.483Z,99088.81
2018-11-10T00:09:55.794Z,99086.41
2018-11-10T00:12:27.924Z,99087.84
2018-11-10T00:15:00.624Z,99081.51
2018-11-10T00:17:32.156Z,99075.98
2018-11-10T00:20:04.260Z,99020.45
2018-11-10T00:22:36.204Z,99062.14
2018-11-10T00:25:09.068Z,98954.94
2018-11-10T00:27:40.904Z,99046.39
2018-11-10T00:30:14.344Z,99046.59
2018-11-10T00:32:46.759Z,99051.83
2018-11-10T00:35:18.870Z,99044.31
2018-11-10T00:37:51.037Z,99044.72
2018-11-10T00:40:23.128Z,99039.92
2018-11-10T00:42:55.429Z,99040.59
2018-11-10T00:45:27.966Z,99037.70
2018-11-10T00:48:00.205Z,99040.22
2018-11-10T00:50:32.661Z,99047.95
2018-11-10T00:53:04.942Z,99043.16
2018-11-10T00:55:36.833Z,99046.27
2018-11-10T00:58:08.823Z,98953.48
2018-11-10T01:00:40.094Z,99042.84
2018-11-10T01:03:12.082Z,99034.02
2018-11-10T01:05:43.224Z,99029.59
2018-11-10T01:08:15.599Z,99026.48
2018-11-10T01:10:47.655Z,99027.28
2018-11-10T01:13:20.036Z,99017.34
2018-11-10T01:15:52.551Z,99019.45
2018-11-10T01:18:24.542Z,99016.73
2018-11-10T01:20:56.872Z,99015.44
2018-11-10T01:23:28.443Z,99014.83
2018-11-10T01:26:00.145Z,99022.77
2018-11-10T01:28:32.459Z,99016.73
2018-11-10T01:31:04.878Z,99020.16
2018-11-10T01:33:36.896Z,99015.94
2018-11-10T01:36:08.415Z,99011.95
2018-11-10T01:38:40.267Z,99020.38
2018-11-10T01:41:12.213Z,99021.20
2018-11-10T01:43:43.899Z,99012.31
2018-11-10T01:46:15.796Z,99011.53
2018-11-10T01:48:47.617Z,99018.08
2018-11-10T01:51:19.241Z,98993.95
2018-11-10T01:53:51.884Z,99011.81
2018-11-10T01:56:24.133Z,99011.91
2018-11-10T01:58:56.124Z,99004.01
2018-11-10T02:01:28.272Z,99002.82
2018-11-10T02:03:59.898Z,98997.61
2018-11-10T02:06:31.739Z,99005.02
2018-11-10T02:09:04.423Z,98997.11
2018-11-10T02:11:40.549Z,98993.59
2018-11-10T02:14:12.342Z,98990.59
2018-11-10T02:16:43.588Z,98980.78
2018-11-10T02:19:15.674Z,98981.05
2018-11-10T02:21:48.300Z,98980.05
2018-11-10T02:24:20.480Z,98974.84
2018-11-10T02:26:52.711Z,98969.63
2018-11-10T02:29:24.422Z,98962.80
2018-11-10T02:31:56.050Z,98957.39
2018-11-10T02:34:28.041Z,98951.18
2018-11-10T02:37:00.883Z,98950.87
2018-11-10T02:39:32.934Z,98945.95
2018-11-10T02:42:04.735Z,98933.41
2018-11-10T02:44:36.932Z,98938.39
2018-11-10T02:47:08.776Z,98940.30
2018-11-10T02:49:41.126Z,98938.78
2018-11-10T02:52:12.289Z,98928.92
2018-11-10T02:54:44.371Z,98937.41
2018-11-10T02:57:16.176Z,98935.69
2018-11-10T02:59:47.672Z,98934.66
2018-11-10T03:02:19.997Z,98921.66
2018-11-10T03:04:51.522Z,98920.02
2018-11-10T03:07:23.608Z,98914.34
2018-11-10T03:09:56.182Z,98908.88
2018-11-10T03:12:27.754Z,98911.25
2018-11-10T03:14:59.890Z,98905.28
2018-11-10T03:17:32.493Z,98898.72
2018-11-10T03:20:04.787Z,98899.38
2018-11-10T03:22:37.639Z,98899.06
2018-11-10T03:25:09.452Z,98892.75
2018-11-10T03:27:40.953Z,98886.61
2018-11-10T03:30:14.363Z,98886.98
2018-11-10T03:32:47.342Z,98873.35
2018-11-10T03:35:19.659Z,98875.41
2018-11-10T03:37:51.379Z,98876.48
2018-11-10T03:40:23.192Z,98869.14
2018-11-10T03:42:55.152Z,98874.96
2018-11-10T03:45:27.615Z,98879.33
2018-11-10T03:47:59.646Z,98888.17
2018-11-10T03:50:31.701Z,98882.05
2018-11-10T03:53:03.615Z,98882.34
2018-11-10T03:55:35.579Z,98873.81
2018-11-10T03:58:07.053Z,98869.19
2018-11-10T04:00:38.898Z,98874.56
2018-11-10T04:03:10.677Z,98873.59
2018-11-10T04:05:42.629Z,98874.75
2018-11-10T04:08:15.059Z,98858.78
2018-11-10T04:10:46.884Z,98857.98
2018-11-10T04:13:19.851Z,98848.13
2018-11-10T04:15:51.426Z,98848.98
2018-11-10T04:18:23.170Z,98841.05
2018-11-10T04:20:55.175Z,98848.53
2018-11-10T04:23:27.650Z,98842.34
2018-11-10T04:26:00.818Z,98847.07
2018-11-10T04:28:32.346Z,98836.83
2018-11-10T04:31:04.985Z,98835.46
2018-11-10T04:33:37.046Z,98838.39
2018-11-10T04:36:08.870Z,98846.55
2018-11-10T04:38:40.931Z,98842.17
2018-11-10T04:41:13.037Z,98833.38
2018-11-10T04:43:44.849Z,98836.16
2018-11-10T04:46:17.430Z,98830.27
2018-11-10T04:48:48.884Z,98828.88
2018-11-10T04:51:21.945Z,98832.12
2018-11-10T04:53:53.603Z,98826.94
2018-11-10T04:56:26.085Z,98828.09
2018-11-10T04:58:58.739Z,98829.00
2018-11-10T05:01:31.037Z,98828.02
2018-11-10T05:04:02.674Z,98820.28
2018-11-10T05:06:34.004Z,98825.22
2018-11-10T05:09:05.962Z,98831.15
2018-11-10T05:11:37.967Z,98836.61
2018-11-10T05:14:14.418Z,98843.82
2018-11-10T05:16:45.762Z,98843.34
2018-11-10T05:19:17.645Z,98844.28
2018-11-10T05:21:49.646Z,98743.11
2018-11-10T05:24:21.398Z,98838.78
2018-11-10T05:26:52.805Z,98847.41
2018-11-10T05:29:24.619Z,98848.81
2018-11-10T05:31:56.121Z,98853.52
2018-11-10T05:34:28.059Z,98839.62
2018-11-10T05:36:59.928Z,98831.80
2018-11-10T05:39:32.546Z,98832.91
2018-11-10T05:42:04.353Z,98833.98
2018-11-10T05:44:35.527Z,98825.67
2018-11-10T05:47:07.398Z,98819.77
2018-11-10T05:49:39.328Z,98827.77
2018-11-10T05:52:11.123Z,98830.89
2018-11-10T05:54:42.891Z,98833.88
2018-11-10T05:57:14.171Z,98835.28
2018-11-10T05:59:45.707Z,98692.08
2018-11-10T06:02:17.803Z,98826.98
2018-11-10T06:04:49.411Z,98824.09
2018-11-10T06:07:21.148Z,98817.08
2018-11-10T06:09:52.992Z,98821.56
2018-11-10T06:12:24.622Z,98819.08
2018-11-10T06:14:56.279Z,98817.09
2018-11-10T06:17:28.316Z,98818.47
2018-11-10T06:20:00.303Z,98813.58
2018-11-10T06:22:31.492Z,98810.97
2018-11-10T06:25:03.723Z,98814.88
2018-11-10T06:27:35.772Z,98819.09
2018-11-10T06:30:08.447Z,98816.78
2018-11-10T06:32:40.899Z,98697.83
2018-11-10T06:35:12.990Z,98800.17
2018-11-10T06:37:44.636Z,98794.23
2018-11-10T06:40:16.668Z,98798.05
2018-11-10T06:42:48.937Z,98797.64
2018-11-10T06:45:21.270Z,98792.73
2018-11-10T06:47:53.012Z,98792.92
2018-11-10T06:51:27.659Z,98799.16
2018-11-10T06:53:59.393Z,98799.34
2018-11-10T06:56:30.842Z,98791.63
2018-11-10T06:59:02.643Z,98778.23
2018-11-10T07:01:34.032Z,98779.23
2018-11-10T07:04:06.512Z,98770.13
2018-11-10T07:06:37.973Z,98771.94
2018-11-10T07:09:13.337Z,98771.44
2018-11-10T07:11:44.953Z,98677.84
2018-11-10T07:14:16.942Z,98772.52
2018-11-10T07:16:50.029Z,98773.00
2018-11-10T07:19:21.343Z,98783.83
2018-11-10T07:21:52.621Z,98792.32
2018-11-10T07:24:24.713Z,98800.62
2018-11-10T07:26:55.935Z,98811.71
2018-11-10T07:29:27.103Z,98811.70
2018-11-10T07:31:59.034Z,98809.45
2018-11-10T07:34:31.091Z,98810.76
2018-11-10T07:37:02.572Z,98801.69
2018-11-10T07:39:34.205Z,98786.73
2018-11-10T07:42:05.808Z,98798.11
2018-11-10T07:44:37.318Z,98728.70
2018-11-10T07:47:08.702Z,98793.75
2018-11-10T07:49:40.013Z,98766.63
2018-11-10T07:52:11.998Z,98787.80
2018-11-10T07:54:43.231Z,98796.76
2018-11-10T07:57:14.876Z,98816.55
2018-11-10T07:59:46.687Z,98814.36
2018-11-10T08:02:18.593Z,98810.63
2018-11-10T08:04:49.894Z,98817.50
2018-11-10T08:07:22.215Z,98818.28
2018-11-10T08:09:53.306Z,98834.72
2018-11-10T08:12:24.672Z,98848.91
2018-11-10T08:14:55.959Z,98859.37
2018-11-10T08:17:27.185Z,98868.30
2018-11-10T08:19:58.361Z,98865.87
2018-11-10T08:22:29.581Z,98866.45
2018-11-10T08:25:02.705Z,98879.23
2018-11-10T08:27:35.602Z,98787.78
2018-11-10T08:30:07.784Z,98868.73
2018-11-10T08:32:39.292Z,98877.83
2018-11-10T08:35:11.982Z,98866.33
2018-11-10T08:37:43.707Z,98863.05
2018-11-10T08:40:16.652Z,98852.64
2018-11-10T08:42:47.836Z,98845.59
2018-11-10T08:45:19.159Z,98853.34
2018-11-10T08:47:50.360Z,98861.92
2018-11-10T08:50:21.715Z,98871.57
2018-11-10T08:52:53.070Z,98872.97
2018-11-10T08:55:24.480Z,98881.20
2018-11-10T08:57:55.894Z,98859.95
2018-11-10T09:00:27.655Z,98877.05
2018-11-10T09:02:58.851Z,98864.00
2018-11-10T09:05:30.068Z,98856.36
2018-11-10T09:08:02.901Z,98845.62
2018-11-10T09:10:34.790Z,98847.11
2018-11-10T09:13:06.853Z,98840.39
2018-11-10T09:15:38.664Z,98838.27
2018-11-10T09:18:10.362Z,98834.78
2018-11-10T09:20:42.291Z,98842.72
2018-11-10T09:23:13.571Z,98842.99
2018-11-10T09:25:45.340Z,98768.92
2018-11-10T09:28:16.557Z,98846.41
2018-11-10T09:30:48.859Z,98838.39
2018-11-10T09:33:20.737Z,98850.13
2018-11-10T09:35:53.010Z,98850.46
2018-11-10T09:38:24.240Z,98845.62
2018-11-10T09:40:55.728Z,98843.07
2018-11-10T09:43:27.350Z,98841.03
2018-11-10T09:45:59.160Z,98846.64
2018-11-10T09:48:32.089Z,98844.69
2018-11-10T09:51:04.353Z,98832.05
2018-11-10T09:53:36.468Z,98835.81
2018-11-10T09:56:07.939Z,98832.72
2018-11-10T09:58:40.149Z,98826.97
2018-11-10T10:08:11.422Z,98825.36
2018-11-10T10:10:44.176Z,98826.95
2018-11-10T10:13:16.025Z,98818.00
2018-11-10T10:15:48.142Z,98818.08
2018-11-10T10:18:20.255Z,98815.96
2018-11-10T10:20:52.182Z,98717.27
2018-11-10T10:23:23.871Z,98799.73
2018-11-10T10:25:55.247Z,98710.00
2018-11-10T10:28:26.566Z,98788.23
2018-11-10T10:30:59.363Z,98783.82
2018-11-10T10:33:30.563Z,98787.53
2018-11-10T10:36:02.005Z,98789.42
2018-11-10T10:38:33.620Z,98743.23
2018-11-10T10:41:05.632Z,98777.00
2018-11-10T10:43:38.435Z,98775.75
2018-11-10T10:46:09.632Z,98766.81
2018-11-10T10:48:42.216Z,98773.41
2018-11-10T10:51:13.760Z,98761.82
2018-11-10T10:53:45.466Z,98754.96
2018-11-10T10:56:18.199Z,98750.72
2018-11-10T10:58:49.350Z,98750.99
2018-11-10T11:01:25.521Z,98685.41
2018-11-10T11:04:05.744Z,98748.66
2018-11-10T11:06:37.402Z,98740.50
2018-11-10T11:09:10.839Z,98743.41
2018-11-10T11:11:42.008Z,98730.21
2018-11-10T11:14:14.177Z,98724.66
2018-11-10T11:16:46.395Z,98745.78
2018-11-10T11:19:18.182Z,98726.73
2018-11-10T11:21:50.183Z,98727.53
2018-11-10T11:24:21.520Z,98723.54
2018-11-10T11:26:53.556Z,98630.02
2018-11-10T11:29:25.723Z,98721.70
2018-11-10T11:31:56.893Z,98723.55
2018-11-10T11:34:29.199Z,98717.73
2018-11-10T11:37:00.449Z,98720.63
2018-11-10T11:39:32.947Z,98721.15
2018-11-10T11:42:05.726Z,98724.34
2018-11-10T11:44:37.376Z,98721.15
2018-11-10T11:47:09.012Z,98734.12
2018-11-10T11:49:40.165Z,98719.03
2018-11-10T11:52:12.436Z,98730.16
2018-11-10T11:54:44.443Z,98722.98
2018-11-10T11:57:15.613Z,98721.66
2018-11-10T11:59:47.243Z,98729.06
2018-11-10T12:02:20.892Z,98720.36
2018-11-10T12:04:53.717Z,98716.11
2018-11-10T12:07:25.989Z,98714.50
2018-11-10T12:09:58.474Z,98712.39
2018-11-10T12:12:29.784Z,98712.16
2018-11-10T12:15:01.490Z,98707.11
2018-11-10T12:17:34.388Z,98712.13
2018-11-10T12:20:07.886Z,98709.45
2018-11-10T12:22:39.163Z,98707.78
2018-11-10T12:25:12.114Z,98708.29
2018-11-10T12:27:57.709Z,98700.02
2018-11-10T12:30:29.996Z,98706.34
2018-11-10T12:33:03.462Z,98702.61
2018-11-10T12:35:35.493Z,98708.14
2018-11-10T12:38:08.066Z,98701.97
2018-11-10T12:40:42.478Z,98688.79
2018-11-10T12:43:17.663Z,98704.05
2018-11-10T12:45:48.897Z,98699.50
2018-11-10T12:48:20.484Z,98696.00
2018-11-10T12:50:53.132Z,98694.38
2018-11-10T12:53:24.435Z,98696.75
2018-11-10T12:55:55.904Z,98697.94
2018-11-10T12:58:27.316Z,98697.94
2018-11-10T13:00:58.676Z,98696.34
2018-11-10T13:03:30.642Z,98699.31
2018-11-10T13:06:04.896Z,98706.25
2018-11-10T13:08:37.668Z,98704.44
2018-11-10T13:11:11.836Z,98712.62
2018-11-10T13:13:43.593Z,98708.11
2018-11-10T13:16:17.301Z,98708.11
2018-11-10T13:18:55.885Z,98699.31
2018-11-10T13:21:32.501Z,98709.91
2018-11-10T13:24:09.940Z,98704.62
2018-11-10T13:26:41.814Z,98704.09
2018-11-10T13:29:16.340Z,98702.76
2018-11-10T13:31:47.945Z,98702.53
2018-11-10T13:34:22.364Z,98714.25
2018-11-10T13:36:55.848Z,98709.56
2018-11-10T13:39:31.401Z,98711.96
2018-11-10T13:42:05.442Z,98711.24
2018-11-10T13:44:40.229Z,98704.69
2018-11-10T13:47:14.949Z,98706.31
2018-11-10T13:49:52.003Z,98710.09
2018-11-10T13:52:24.904Z,98700.34
2018-11-10T13:55:03.129Z,98699.36
2018-11-10T13:57:36.613Z,98624.39
2018-11-10T14:00:17.706Z,98699.70
2018-11-10T14:02:49.187Z,98704.20
2018-11-10T14:05:23.337Z,98706.05
2018-11-10T14:07:54.791Z,98706.86
2018-11-10T14:10:26.036Z,98719.03
2018-11-10T14:12:57.219Z,98720.08
2018-11-10T14:15:31.713Z,98724.30
2018-11-10T14:18:04.347Z,98645.61
2018-11-10T14:20:36.242Z,98725.94
2018-11-10T14:23:09.010Z,98716.16
2018-11-10T14:25:40.611Z,98715.63
2018-11-10T14:28:12.236Z,98640.85
2018-11-10T14:30:43.695Z,98718.02
2018-11-10T14:33:16.611Z,98727.27
2018-11-10T14:35:48.889Z,98718.81
2018-11-10T14:38:21.771Z,98721.48
2018-11-10T14:40:56.416Z,98723.08
2018-11-10T14:43:27.743Z,98729.94
2018-11-10T14:46:00.051Z,98731.78
2018-11-10T14:48:31.281Z,98725.71
2018-11-10T14:51:06.035Z,98720.67
2018-11-10T14:53:37.521Z,98728.08
2018-11-10T14:56:09.283Z,98733.37
2018-11-10T14:58:41.416Z,98738.37
2018-11-10T15:01:15.012Z,98745.52
2018-11-10T15:03:48.533Z,98661.89
2018-11-10T15:06:21.783Z,98734.62
2018-11-10T15:08:53.637Z,98744.41
2018-11-10T15:11:26.930Z,98655.23
2018-11-10T15:13:58.769Z,98742.26
2018-11-10T15:16:30.606Z,98736.72
2018-11-10T15:19:03.118Z,98738.54
2018-11-10T15:21:36.472Z,98737.48
2018-11-10T15:24:10.605Z,98736.16
2018-11-10T15:26:41.999Z,98735.61
2018-11-10T15:29:15.608Z,98740.09
2018-11-10T15:31:47.175Z,98745.91
2018-11-10T15:34:18.745Z,98741.92
2018-11-10T15:36:50.389Z,98740.87
2018-11-10T15:39:21.967Z,98737.68
2018-11-10T15:41:54.608Z,98735.57
2018-11-10T15:44:26.174Z,98736.34
2018-11-10T15:46:57.725Z,98740.30
2018-11-10T15:49:29.889Z,98748.23
2018-11-10T15:52:03.376Z,98682.64
2018-11-10T15:54:34.942Z,98673.89
2018-11-10T15:57:08.740Z,98737.13
2018-11-10T15:59:41.079Z,98736.34
2018-11-10T16:02:12.780Z,98742.17
2018-11-10T16:04:44.361Z,98739.25
2018-11-10T16:07:15.805Z,98746.65
2018-11-10T16:09:49.201Z,98745.05
2018-11-10T16:12:21.465Z,98742.70
2018-11-10T16:14:53.763Z,98743.99
2018-11-10T16:17:25.520Z,98746.09
2018-11-10T16:19:57.533Z,98747.16
2018-11-10T16:22:28.887Z,98746.64
2018-11-10T16:25:00.256Z,98739.75
2018-11-10T16:27:32.654Z,98740.52
2018-11-10T16:30:05.267Z,98734.97
2018-11-10T16:32:37.005Z,98739.18
2018-11-10T16:35:09.187Z,98739.19
2018-11-10T16:37:40.720Z,98741.02
2018-11-10T16:40:17.418Z,98745.78
2018-11-10T16:42:49.848Z,98743.92
2018-11-10T16:45:22.653Z,98746.30
2018-11-10T16:47:54.659Z,98745.03
2018-11-10T16:50:25.921Z,98745.55
2018-11-10T16:53:02.713Z,98660.30
2018-11-10T16:55:35.076Z,98744.75
2018-11-10T16:58:06.668Z,98746.64
2018-11-10T17:00:39.881Z,98661.13
2018-11-10T17:03:13.263Z,98743.45
2018-11-10T17:05:45.982Z,98732.31
2018-11-10T17:08:22.098Z,98749.27
2018-11-10T17:10:56.404Z,98748.23
2018-11-10T17:13:28.285Z,98751.64
2018-11-10T17:16:00.373Z,98751.91
2018-11-10T17:18:32.002Z,98754.83
2018-11-10T17:21:03.664Z,98754.58
2018-11-10T17:23:37.265Z,98758.53
2018-11-10T17:26:09.287Z,98756.92
2018-11-10T17:28:41.309Z,98760.36
2018-11-10T17:31:12.576Z,98761.42
2018-11-10T17:33:44.688Z,98751.39
2018-11-10T17:36:16.967Z,98749.00
2018-11-10T17:38:48.706Z,98745.57
2018-11-10T17:41:20.270Z,98751.08
2018-11-10T17:43:51.945Z,98755.84
2018-11-10T17:46:24.288Z,98753.97
2018-11-10T17:48:57.067Z,98752.91
2018-11-10T17:51:28.246Z,98750.02
2018-11-10T17:54:00.174Z,98753.41
2018-11-10T17:56:32.086Z,98752.84
2018-11-10T17:59:04.529Z,98760.23
2018-11-10T18:01:35.965Z,98763.65
2018-11-10T18:04:08.251Z,98755.20
2018-11-10T18:06:40.032Z,98761.80
2018-11-10T18:09:14.118Z,98762.27
2018-11-10T18:11:45.446Z,98758.81
2018-11-10T18:14:17.124Z,98757.77
2018-11-10T18:16:48.848Z,98753.54
2018-11-10T18:19:20.899Z,98753.02
2018-11-10T18:21:52.757Z,98752.72
2018-11-10T18:24:24.898Z,98749.28
2018-11-10T18:26:56.734Z,98743.76
2018-11-10T18:29:28.620Z,98749.53
2018-11-10T18:32:00.163Z,98733.70
2018-11-10T18:34:31.748Z,98733.65
2018-11-10T18:37:04.111Z,98727.24
2018-11-10T18:39:35.350Z,98717.47
2018-11-10T18:42:07.741Z,98719.30
2018-11-10T18:44:39.514Z,98719.80
2018-11-10T18:47:13.226Z,98719.33
2018-11-10T18:49:45.921Z,98723.34
2018-11-10T18:52:18.154Z,98716.48
2018-11-10T18:54:50.855Z,98720.95
2018-11-10T18:57:22.224Z,98718.38
2018-11-10T18:59:53.669Z,98725.52
2018-11-10T19:02:26.778Z,98725.81
2018-11-10T19:04:59.688Z,98721.61
2018-11-10T19:07:31.252Z,98731.64
2018-11-10T19:10:03.537Z,98733.20
2018-11-10T19:12:35.835Z,98748.27
2018-11-10T19:15:08.609Z,98733.25
2018-11-10T19:17:40.922Z,98729.02
2018-11-10T19:20:12.802Z,98725.61
2018-11-10T19:22:43.961Z,98729.32
2018-11-10T19:25:17.467Z,98735.42
2018-11-10T19:27:49.231Z,98734.05
2018-11-10T19:30:21.864Z,98733.27
2018-11-10T19:32:55.899Z,98734.86
2018-11-10T19:35:27.333Z,98725.38
2018-11-10T19:37:59.478Z,98722.22
2018-11-10T19:40:32.001Z,98723.02
2018-11-10T19:43:05.065Z,98728.04
2018-11-10T19:45:37.833Z,98725.68
2018-11-10T19:48:09.283Z,98724.60
2018-11-10T19:50:41.397Z,98721.47
2018-11-10T19:53:13.786Z,98727.53
2018-11-10T19:55:45.780Z,98722.53
2018-11-10T19:58:17.408Z,98728.87
2018-11-10T20:00:48.700Z,98727.31
2018-11-10T20:03:21.984Z,98729.94
2018-11-10T20:05:53.628Z,98727.03
2018-11-10T20:08:26.623Z,98728.91
2018-11-10T20:10:58.730Z,98725.46
2018-11-10T20:13:31.029Z,98723.36
2018-11-10T20:16:03.589Z,98728.89
2018-11-10T20:18:36.281Z,98724.15
2018-11-10T20:21:09.447Z,98722.03
2018-11-10T20:23:43.076Z,98722.80
2018-11-10T20:26:14.264Z,98724.14
2018-11-10T20:28:45.510Z,98730.22
2018-11-10T20:31:17.123Z,98732.06
2018-11-10T20:33:48.935Z,98727.03
2018-11-10T20:36:21.033Z,98732.84
2018-11-10T20:38:53.728Z,98738.37
2018-11-10T20:41:24.932Z,98734.41
2018-11-10T20:43:57.686Z,98738.37
2018-11-10T20:46:30.545Z,98735.98
2018-11-10T20:49:03.243Z,98733.33
2018-11-10T20:51:34.659Z,98730.41
2018-11-10T20:54:06.082Z,98728.30
2018-11-10T20:56:37.880Z,98724.59
2018-11-10T20:59:09.161Z,98726.68
2018-11-10T21:01:42.338Z,98718.50
2018-11-10T21:04:14.231Z,98718.22
2018-11-10T21:06:52.600Z,98721.63
2018-11-10T21:09:31.342Z,98724.27
2018-11-10T21:12:02.691Z,98727.16
2018-11-10T21:14:34.038Z,98729.52
2018-11-10T21:17:05.539Z,98731.09
2018-11-10T21:19:37.740Z,98730.59
2018-11-10T21:22:14.436Z,98725.56
2018-11-10T21:24:45.998Z,98726.36
2018-11-10T21:27:17.912Z,98725.84
2018-11-10T21:29:49.520Z,98723.72
2018-11-10T21:32:23.284Z,98720.31
2018-11-10T21:34:55.313Z,98720.34
2018-11-10T21:37:28.662Z,98720.06
2018-11-10T21:40:00.162Z,98716.38
2018-11-10T21:42:33.390Z,98720.84
2018-11-10T21:45:05.884Z,98713.20
2018-11-10T21:47:37.902Z,98715.83
2018-11-10T21:50:12.118Z,98706.84
2018-11-10T21:52:44.595Z,98705.80
2018-11-10T21:55:17.694Z,98715.04
2018-11-10T21:57:50.929Z,98711.61
2018-11-10T22:00:24.122Z,98712.37
2018-11-10T22:02:56.443Z,98710.23
2018-11-10T22:05:30.146Z,98711.30
2018-11-10T22:08:01.953Z,98621.81
2018-11-10T22:10:34.888Z,98711.30
2018-11-10T22:13:07.663Z,98704.44
2018-11-10T22:15:40.998Z,98700.48
2018-11-10T22:18:15.795Z,98713.42
2018-11-10T22:20:48.230Z,98715.83
2018-11-10T22:23:20.300Z,98713.47
2018-11-10T22:25:51.772Z,98717.72
2018-11-10T22:28:22.941Z,98714.56
2018-11-10T22:30:55.901Z,98716.40
2018-11-10T22:33:29.365Z,98718.27
2018-11-10T22:36:00.984Z,98706.89
2018-11-10T22:38:33.057Z,98709.50
2018-11-10T22:41:05.111Z,98713.47
2018-11-10T22:43:37.888Z,98716.91
2018-11-10T22:46:10.137Z,98714.49
2018-11-10T22:48:42.018Z,98719.52
2018-11-10T22:51:14.910Z,98720.56
2018-11-10T22:53:46.684Z,98721.28
2018-11-10T22:56:18.236Z,98717.33
2018-11-10T22:58:51.549Z,98722.35
2018-11-10T23:01:26.819Z,98727.87
2018-11-10T23:03:58.940Z,98728.31
2018-11-10T23:06:30.680Z,98729.36
2018-11-10T23:09:02.879Z,98728.34
2018-11-10T23:11:35.239Z,98730.98
2018-11-10T23:14:07.018Z,98726.42
2018-11-10T23:16:38.598Z,98720.87
2018-11-10T23:19:10.301Z,98664.31
2018-11-10T23:21:41.930Z,98727.86
2018-11-10T23:24:14.140Z,98737.57
2018-11-10T23:26:46.182Z,98727.27
2018-11-10T23:29:18.406Z,98728.63
2018-11-10T23:31:50.104Z,98728.06
2018-11-10T23:34:22.342Z,98725.16
2018-11-10T23:36:54.283Z,98702.93
2018-11-10T23:39:25.951Z,98725.95
2018-11-10T23:41:57.827Z,98727.55
2018-11-10T23:44:30.644Z,98727.52
2018-11-10T23:47:03.156Z,98726.20
2018-11-10T23:49:35.923Z,98724.59
2018-11-10T23:52:08.840Z,98721.97
2018-11-10T23:54:40.607Z,98713.78
2018-11-10T23:57:12.496Z,98716.73
2018-11-10T23:59:43.655Z,98711.70
